Time;durP1;ratioP1;P1;durP2;ratioP2;P2;SDS_P1;SDS_P2;PMS_P1;PMS_P2;Temp;Humidity;BMP_temperature;BMP_pressure;BME280_temperature;BME280_humidity;BME280_pressure;Samples;Min_cycle;Max_cycle;Signal;HPM_P1;HPM_P2
2023/12/11 00:02:16;;;;;;;1.25;0.60;;;10.90;99.90;;;;;;5012251;28;20078;-80
2023/12/11 00:04:43;;;;;;;0.60;0.40;;;10.90;99.90;;;;;;5008355;28;20076;-82
2023/12/11 00:07:09;;;;;;;0.75;0.50;;;10.90;99.90;;;;;;5009779;28;20061;-81
2023/12/11 00:09:36;;;;;;;0.80;0.40;;;10.90;99.90;;;;;;5008512;28;20056;-81
2023/12/11 00:12:03;;;;;;;1.42;0.50;;;11.00;99.90;;;;;;5011853;28;20136;-80
2023/12/11 00:14:30;;;;;;;0.98;0.60;;;11.00;99.90;;;;;;5012329;28;20050;-81
2023/12/11 00:16:56;;;;;;;0.75;0.52;;;11.00;99.90;;;;;;5010693;28;20085;-81
2023/12/11 00:19:23;;;;;;;0.63;0.50;;;11.00;99.90;;;;;;5014356;28;20042;-82
2023/12/11 00:21:50;;;;;;;1.52;0.47;;;11.10;99.90;;;;;;5007623;28;20053;-82
2023/12/11 00:24:17;;;;;;;1.30;0.57;;;11.10;99.90;;;;;;5011145;28;20080;-81
2023/12/11 00:26:44;;;;;;;0.85;0.50;;;11.10;99.90;;;;;;5007399;28;20403;-83
2023/12/11 00:29:10;;;;;;;0.88;0.30;;;11.20;99.90;;;;;;5013048;28;20085;-81
2023/12/11 00:31:37;;;;;;;0.38;0.38;;;11.20;99.90;;;;;;5004830;28;20081;-81
2023/12/11 00:34:04;;;;;;;0.77;0.43;;;11.20;99.90;;;;;;5014058;28;20046;-81
2023/12/11 00:36:31;;;;;;;3.25;0.63;;;11.30;99.90;;;;;;5007263;28;20038;-79
2023/12/11 00:38:57;;;;;;;0.47;0.35;;;11.30;99.90;;;;;;5010906;28;20049;-80
2023/12/11 00:41:24;;;;;;;0.60;0.55;;;11.30;99.90;;;;;;5009021;28;20049;-80
2023/12/11 00:43:51;;;;;;;0.30;0.30;;;11.40;99.90;;;;;;5016233;28;20042;-80
2023/12/11 00:46:23;;;;;;;1.33;0.63;;;11.40;99.90;;;;;;5012215;28;20058;-81
2023/12/11 00:48:50;;;;;;;0.70;0.40;;;11.40;99.90;;;;;;5010719;28;20053;-80
2023/12/11 00:51:19;;;;;;;1.90;0.50;;;11.50;99.90;;;;;;5012758;28;20049;-80
2023/12/11 00:53:47;;;;;;;0.43;0.43;;;11.50;99.90;;;;;;5009702;28;20461;-80
2023/12/11 00:56:14;;;;;;;2.10;0.32;;;11.50;99.90;;;;;;5012517;28;20053;-81
2023/12/11 00:58:41;;;;;;;2.90;0.40;;;11.60;99.90;;;;;;5013317;28;20053;-81
2023/12/11 01:01:07;;;;;;;0.70;0.40;;;11.60;99.90;;;;;;5016653;28;20037;-80
2023/12/11 01:03:36;;;;;;;0.68;0.60;;;11.60;99.90;;;;;;5008516;28;20399;-81
2023/12/11 01:06:03;;;;;;;1.85;0.50;;;11.70;99.90;;;;;;5002317;28;20120;-81
2023/12/11 01:08:30;;;;;;;0.35;0.32;;;11.70;99.90;;;;;;5008905;28;20042;-82
2023/12/11 01:10:57;;;;;;;1.65;0.50;;;11.70;99.90;;;;;;5017960;28;20050;-80
2023/12/11 01:13:25;;;;;;;1.33;0.22;;;11.70;99.90;;;;;;5013764;28;20041;-80
2023/12/11 01:15:52;;;;;;;0.40;0.40;;;11.70;99.90;;;;;;5012124;28;20050;-81
2023/12/11 01:18:18;;;;;;;2.08;0.52;;;11.80;99.90;;;;;;5016623;28;20046;-81
2023/12/11 01:20:45;;;;;;;1.75;0.55;;;11.80;99.90;;;;;;5011030;28;20072;-80
2023/12/11 01:23:12;;;;;;;1.17;0.50;;;11.80;99.90;;;;;;5013693;28;20042;-82
2023/12/11 01:25:39;;;;;;;1.45;0.43;;;11.70;99.90;;;;;;5010293;28;20136;-82
2023/12/11 01:28:06;;;;;;;0.75;0.40;;;11.70;99.90;;;;;;5010894;28;20046;-80
2023/12/11 01:30:33;;;;;;;3.58;0.95;;;11.70;99.90;;;;;;5015301;28;20048;-81
2023/12/11 01:33:01;;;;;;;0.63;0.60;;;11.70;99.90;;;;;;5015324;28;20180;-80
2023/12/11 01:35:28;;;;;;;3.53;0.52;;;11.70;99.90;;;;;;5008244;28;20042;-81
2023/12/11 01:37:54;;;;;;;1.10;0.40;;;11.70;99.90;;;;;;5014476;28;20050;-82
2023/12/11 01:40:21;;;;;;;0.52;0.40;;;11.70;99.90;;;;;;5009436;28;20046;-81
2023/12/11 01:42:49;;;;;;;0.25;0.25;;;11.80;99.90;;;;;;5014121;28;20054;-81
2023/12/11 01:45:17;;;;;;;0.90;0.50;;;11.80;99.90;;;;;;5008133;28;20042;-80
2023/12/11 01:47:44;;;;;;;0.30;0.30;;;11.80;99.90;;;;;;5017118;28;20104;-81
2023/12/11 01:50:11;;;;;;;0.80;0.43;;;11.80;99.90;;;;;;5009690;28;20049;-82
2023/12/11 01:52:38;;;;;;;0.82;0.40;;;11.80;99.90;;;;;;5014231;28;20084;-80
2023/12/11 01:55:06;;;;;;;5.78;0.60;;;11.80;99.90;;;;;;5019767;28;20042;-80
2023/12/11 01:57:34;;;;;;;0.52;0.50;;;11.80;99.90;;;;;;5014678;28;20120;-80
2023/12/11 02:00:04;;;;;;;2.47;0.40;;;11.90;99.90;;;;;;5015934;28;20047;-81
2023/12/11 02:02:31;;;;;;;1.55;0.50;;;11.80;99.90;;;;;;5012187;28;20057;-80
2023/12/11 02:04:58;;;;;;;0.45;0.35;;;11.80;99.90;;;;;;5015514;28;20097;-80
2023/12/11 02:07:25;;;;;;;1.30;0.50;;;11.80;99.90;;;;;;5014584;28;20046;-82
2023/12/11 02:09:52;;;;;;;0.43;0.40;;;11.90;99.90;;;;;;5012967;28;20074;-80
2023/12/11 02:12:19;;;;;;;1.23;0.50;;;11.80;99.90;;;;;;5014377;28;20053;-80
2023/12/11 02:14:46;;;;;;;0.45;0.40;;;11.80;99.90;;;;;;5011738;28;20050;-80
2023/12/11 02:17:12;;;;;;;3.03;0.52;;;11.80;99.90;;;;;;5017624;28;20042;-80
2023/12/11 02:19:39;;;;;;;1.00;0.30;;;11.80;99.90;;;;;;5013887;28;20038;-81
2023/12/11 02:22:06;;;;;;;1.27;0.32;;;11.80;99.90;;;;;;5013597;28;20115;-81
2023/12/11 02:24:49;;;;;;;1.75;0.43;;;11.80;99.90;;;;;;5013631;28;20045;-80
2023/12/11 02:27:16;;;;;;;1.30;0.50;;;11.80;99.90;;;;;;5011266;28;20050;-81
2023/12/11 02:29:42;;;;;;;2.10;0.47;;;11.70;99.90;;;;;;5011251;28;20046;-80
2023/12/11 02:32:09;;;;;;;2.35;0.63;;;11.70;99.90;;;;;;5010383;28;20490;-80
2023/12/11 02:34:36;;;;;;;1.33;0.40;;;11.70;99.90;;;;;;5007040;28;20042;-78
2023/12/11 02:37:03;;;;;;;0.85;0.65;;;11.60;99.90;;;;;;5010290;28;20050;-80
2023/12/11 02:39:30;;;;;;;1.63;0.70;;;11.60;99.90;;;;;;5008530;28;20041;-80
2023/12/11 02:41:56;;;;;;;0.88;0.30;;;11.60;99.90;;;;;;5009437;28;20046;-81
2023/12/11 02:44:23;;;;;;;0.55;0.30;;;11.60;99.90;;;;;;5004058;28;20422;-80
2023/12/11 02:46:50;;;;;;;1.42;0.52;;;11.50;99.90;;;;;;5014453;28;20054;-78
2023/12/11 02:49:17;;;;;;;2.65;0.50;;;11.50;99.90;;;;;;5007346;28;20089;-81
2023/12/11 02:51:43;;;;;;;2.25;0.60;;;11.40;99.90;;;;;;5011199;28;20049;-81
2023/12/11 02:54:10;;;;;;;0.60;0.40;;;11.40;99.90;;;;;;5008508;28;20524;-80
2023/12/11 02:56:40;;;;;;;0.57;0.40;;;11.40;99.90;;;;;;5006686;28;20053;-78
2023/12/11 02:59:06;;;;;;;1.42;0.50;;;11.30;99.90;;;;;;5010544;28;20073;-81
2023/12/11 03:01:38;;;;;;;2.45;0.40;;;11.30;99.90;;;;;;5011811;28;20065;-81
2023/12/11 03:04:05;;;;;;;1.33;0.60;;;11.30;99.90;;;;;;5007906;28;20078;-80
2023/12/11 03:06:32;;;;;;;1.23;0.50;;;11.30;99.90;;;;;;5003691;28;20127;-80
2023/12/11 03:09:02;;;;;;;1.38;0.40;;;11.20;99.90;;;;;;5024241;28;20046;-80
2023/12/11 03:11:29;;;;;;;3.00;0.57;;;11.20;99.90;;;;;;5003143;28;20112;-80
2023/12/11 03:13:56;;;;;;;1.33;0.40;;;11.20;99.90;;;;;;5010543;28;20524;-80
2023/12/11 03:16:23;;;;;;;0.65;0.40;;;11.20;99.90;;;;;;5007557;28;20101;-81
2023/12/11 03:18:49;;;;;;;2.40;0.55;;;11.20;99.90;;;;;;5009115;28;20049;-81
2023/12/11 03:21:16;;;;;;;0.95;0.50;;;11.20;99.90;;;;;;5004683;28;20418;-81
2023/12/11 03:23:43;;;;;;;0.40;0.40;;;11.20;99.90;;;;;;5009147;28;20054;-81
2023/12/11 03:26:10;;;;;;;1.45;0.50;;;11.20;99.90;;;;;;5011471;28;20054;-81
2023/12/11 03:28:37;;;;;;;0.85;0.40;;;11.10;99.90;;;;;;5007958;28;20050;-80
2023/12/11 03:31:04;;;;;;;0.65;0.50;;;11.10;99.90;;;;;;5002426;28;20054;-80
2023/12/11 03:33:30;;;;;;;1.52;0.47;;;11.10;99.90;;;;;;5006924;28;20582;-79
2023/12/11 03:35:57;;;;;;;0.68;0.40;;;11.10;99.90;;;;;;5009747;28;20398;-80
2023/12/11 03:38:24;;;;;;;0.35;0.30;;;11.20;99.90;;;;;;5009265;28;20494;-80
2023/12/11 03:40:51;;;;;;;1.65;0.60;;;11.20;99.90;;;;;;5008096;28;20108;-81
2023/12/11 03:43:17;;;;;;;0.32;0.22;;;11.20;99.90;;;;;;5010637;28;20116;-81
2023/12/11 03:45:46;;;;;;;1.42;0.47;;;11.30;99.90;;;;;;5010268;28;20050;-80
2023/12/11 03:48:13;;;;;;;1.27;0.35;;;11.30;99.90;;;;;;5009010;28;20046;-80
2023/12/11 03:50:39;;;;;;;1.08;0.30;;;11.40;99.90;;;;;;5010219;28;20145;-81
2023/12/11 03:53:07;;;;;;;0.30;0.30;;;11.40;99.90;;;;;;5009793;28;20050;-81
2023/12/11 03:55:34;;;;;;;1.00;0.30;;;11.40;99.90;;;;;;5010731;28;20061;-80
2023/12/11 03:58:01;;;;;;;0.38;0.28;;;11.50;99.90;;;;;;5005939;28;20104;-80
2023/12/11 04:00:27;;;;;;;2.10;0.47;;;11.50;99.90;;;;;;5008976;28;20062;-80
2023/12/11 04:02:54;;;;;;;0.95;0.65;;;11.60;99.90;;;;;;5009265;28;20050;-81
2023/12/11 04:05:21;;;;;;;0.50;0.50;;;11.60;99.90;;;;;;5009832;28;20099;-80
2023/12/11 04:07:47;;;;;;;1.15;0.30;;;11.70;99.90;;;;;;5009255;28;20127;-80
2023/12/11 04:10:14;;;;;;;1.23;0.25;;;11.60;99.90;;;;;;5008766;28;20073;-80
2023/12/11 04:12:42;;;;;;;0.17;0.17;;;11.60;99.90;;;;;;5007168;28;20084;-82
2023/12/11 04:15:10;;;;;;;0.30;0.30;;;11.70;99.90;;;;;;5016724;28;20449;-81
2023/12/11 04:17:37;;;;;;;0.70;0.30;;;11.70;99.90;;;;;;5015847;28;20473;-81
2023/12/11 04:20:04;;;;;;;2.90;0.35;;;11.70;99.90;;;;;;5015755;28;20046;-81
2023/12/11 04:22:31;;;;;;;1.05;0.40;;;11.70;99.90;;;;;;5013751;28;20050;-82
2023/12/11 04:24:58;;;;;;;3.58;0.40;;;11.70;99.90;;;;;;5010531;28;20082;-80
2023/12/11 04:27:25;;;;;;;0.60;0.38;;;11.80;99.90;;;;;;5016872;28;20575;-81
2023/12/11 04:29:52;;;;;;;0.57;0.45;;;11.80;99.90;;;;;;5013695;28;20046;-81
2023/12/11 04:32:19;;;;;;;0.70;0.47;;;11.80;99.90;;;;;;5013132;28;20473;-80
2023/12/11 04:34:45;;;;;;;1.90;0.50;;;11.80;99.90;;;;;;5012520;28;20049;-81
2023/12/11 04:37:12;;;;;;;1.30;0.43;;;11.80;99.90;;;;;;5013509;28;20050;-81
2023/12/11 04:39:39;;;;;;;2.38;0.40;;;11.80;99.90;;;;;;5011806;28;20046;-80
2023/12/11 04:42:06;;;;;;;0.93;0.60;;;11.80;99.90;;;;;;5012735;28;20052;-80
2023/12/11 04:44:33;;;;;;;0.57;0.47;;;11.80;99.90;;;;;;5011707;28;20042;-80
2023/12/11 04:46:59;;;;;;;0.55;0.40;;;11.80;99.90;;;;;;5014400;28;20122;-81
2023/12/11 04:49:26;;;;;;;0.82;0.30;;;11.80;99.90;;;;;;5011111;28;20042;-82
2023/12/11 04:51:53;;;;;;;0.82;0.40;;;11.80;99.90;;;;;;5014438;28;20121;-82
2023/12/11 04:54:20;;;;;;;3.00;0.70;;;11.80;99.90;;;;;;5015084;28;20046;-82
2023/12/11 04:56:46;;;;;;;4.07;0.88;;;11.70;99.90;;;;;;5010330;28;20112;-80
2023/12/11 04:59:13;;;;;;;1.02;0.50;;;11.70;99.90;;;;;;5026682;28;20457;-82
2023/12/11 05:01:40;;;;;;;2.00;0.73;;;11.70;99.90;;;;;;5015263;28;20069;-80
2023/12/11 05:04:06;;;;;;;2.33;0.68;;;11.70;99.90;;;;;;5015831;28;20052;-81
2023/12/11 05:06:33;;;;;;;2.75;0.93;;;11.70;99.90;;;;;;5011671;28;20046;-82
2023/12/11 05:09:00;;;;;;;0.95;0.60;;;11.70;99.90;;;;;;5012598;28;20136;-81
2023/12/11 05:11:27;;;;;;;1.60;0.57;;;11.70;99.90;;;;;;5016849;28;20053;-82
2023/12/11 05:13:53;;;;;;;3.00;0.90;;;11.80;99.90;;;;;;5014370;28;20077;-81
2023/12/11 05:16:20;;;;;;;3.03;0.77;;;11.80;99.90;;;;;;5011312;28;20054;-82
2023/12/11 05:18:51;;;;;;;0.88;0.50;;;11.80;99.90;;;;;;5015074;28;20488;-81
2023/12/11 05:21:18;;;;;;;2.85;0.85;;;11.80;99.90;;;;;;5014196;28;20489;-81
2023/12/11 05:23:46;;;;;;;1.52;0.82;;;11.80;99.90;;;;;;5012849;28;20045;-81
2023/12/11 05:26:21;;;;;;;1.35;0.50;;;11.90;99.90;;;;;;5012256;28;20050;-82
2023/12/11 05:28:48;;;;;;;0.57;0.50;;;11.90;99.90;;;;;;5013390;28;20050;-80
2023/12/11 05:31:15;;;;;;;1.48;0.57;;;11.90;99.90;;;;;;5011993;28;20050;-82
2023/12/11 05:33:42;;;;;;;2.65;0.82;;;11.90;99.90;;;;;;5011925;28;20137;-81
2023/12/11 05:36:09;;;;;;;0.75;0.45;;;12.00;99.90;;;;;;5030670;28;20049;-82
2023/12/11 05:38:36;;;;;;;0.60;0.40;;;12.00;99.90;;;;;;5011274;28;20042;-82
2023/12/11 05:41:03;;;;;;;1.58;0.40;;;12.00;99.90;;;;;;5014346;28;20089;-80
2023/12/11 05:43:29;;;;;;;1.23;0.60;;;12.00;99.90;;;;;;5020304;28;20050;-80
2023/12/11 05:45:56;;;;;;;0.60;0.50;;;12.10;99.90;;;;;;5019511;28;20079;-80
2023/12/11 05:48:23;;;;;;;1.95;0.75;;;12.10;99.90;;;;;;5025230;28;20050;-81
2023/12/11 05:50:50;;;;;;;1.05;0.60;;;12.10;99.90;;;;;;5012737;28;20045;-81
2023/12/11 05:53:17;;;;;;;1.55;0.82;;;12.10;99.90;;;;;;5024392;28;20121;-80
2023/12/11 05:55:43;;;;;;;0.77;0.47;;;12.10;99.90;;;;;;5011165;28;20069;-82
2023/12/11 05:58:10;;;;;;;1.00;0.47;;;12.10;99.90;;;;;;5015046;28;20403;-82
2023/12/11 06:00:37;;;;;;;0.63;0.50;;;12.20;99.90;;;;;;5013423;28;20405;-82
2023/12/11 06:03:04;;;;;;;0.77;0.45;;;12.20;99.90;;;;;;5014459;28;20394;-80
2023/12/11 06:05:31;;;;;;;1.10;0.55;;;12.20;99.90;;;;;;5017097;28;20056;-80
2023/12/11 06:07:58;;;;;;;2.63;0.90;;;12.20;99.90;;;;;;5012987;28;20053;-80
2023/12/11 06:10:24;;;;;;;2.72;1.20;;;12.20;99.90;;;;;;5016381;28;20096;-80
2023/12/11 06:12:51;;;;;;;3.40;1.42;;;12.20;99.90;;;;;;5015790;28;20548;-81
2023/12/11 06:15:18;;;;;;;2.85;1.00;;;12.20;99.90;;;;;;5024739;28;20096;-81
2023/12/11 06:17:45;;;;;;;1.38;0.50;;;12.20;99.90;;;;;;5013910;28;20508;-79
2023/12/11 06:20:11;;;;;;;1.35;0.70;;;12.20;99.90;;;;;;5013510;28;20506;-80
2023/12/11 06:22:38;;;;;;;2.60;2.35;;;12.20;99.90;;;;;;5013553;28;20084;-80
2023/12/11 06:25:05;;;;;;;1.23;1.00;;;12.20;99.90;;;;;;5006365;28;20050;-80
2023/12/11 06:27:32;;;;;;;2.30;1.60;;;12.20;99.90;;;;;;5012413;28;20042;-80
2023/12/11 06:29:59;;;;;;;2.38;1.77;;;12.20;99.90;;;;;;5008714;28;20050;-81
2023/12/11 06:32:26;;;;;;;0.70;0.60;;;12.20;99.90;;;;;;5012490;28;20053;-80
2023/12/11 06:34:52;;;;;;;0.88;0.68;;;12.20;99.90;;;;;;5009392;28;20085;-81
2023/12/11 06:37:19;;;;;;;1.02;0.68;;;12.20;99.90;;;;;;5009770;28;20054;-81
2023/12/11 06:39:48;;;;;;;1.15;0.70;;;12.20;99.90;;;;;;5012606;28;20042;-82
2023/12/11 06:42:15;;;;;;;2.88;0.63;;;12.20;99.90;;;;;;5011369;28;20058;-81
2023/12/11 06:44:41;;;;;;;2.15;0.70;;;12.20;99.90;;;;;;5007918;28;20584;-81
2023/12/11 06:47:09;;;;;;;0.82;0.60;;;12.20;99.90;;;;;;5011830;28;20104;-81
2023/12/11 06:49:37;;;;;;;0.75;0.40;;;12.20;99.90;;;;;;5013619;28;20046;-82
2023/12/11 06:52:04;;;;;;;0.85;0.68;;;12.20;99.90;;;;;;5005471;28;20057;-83
2023/12/11 06:54:31;;;;;;;2.67;0.85;;;12.20;99.90;;;;;;5013063;28;20409;-81
2023/12/11 06:56:58;;;;;;;0.95;0.55;;;12.20;99.90;;;;;;5010728;28;20051;-81
2023/12/11 06:59:27;;;;;;;2.25;0.60;;;12.10;99.90;;;;;;5009473;28;20053;-80
2023/12/11 07:01:54;;;;;;;3.55;0.60;;;12.10;99.90;;;;;;5014303;28;20506;-81
2023/12/11 07:04:20;;;;;;;1.45;0.60;;;12.10;99.90;;;;;;5012479;28;20087;-81
2023/12/11 07:06:47;;;;;;;0.82;0.57;;;12.10;99.90;;;;;;5014144;28;20046;-81
2023/12/11 07:09:14;;;;;;;1.63;0.57;;;12.10;99.90;;;;;;5009788;28;20051;-81
2023/12/11 07:11:41;;;;;;;1.63;0.70;;;12.10;99.90;;;;;;5011490;28;20042;-80
2023/12/11 07:14:08;;;;;;;1.98;0.43;;;12.10;99.90;;;;;;5008541;28;20051;-82
2023/12/11 07:16:35;;;;;;;1.20;0.57;;;12.10;99.90;;;;;;5006980;28;20052;-81
2023/12/11 07:19:04;;;;;;;3.88;0.90;;;12.10;99.90;;;;;;5007594;28;20046;-81
2023/12/11 07:21:31;;;;;;;4.15;1.30;;;12.10;99.90;;;;;;5009656;28;20046;-81
2023/12/11 07:23:57;;;;;;;3.15;0.68;;;12.10;99.90;;;;;;5011713;28;20054;-81
2023/12/11 07:26:24;;;;;;;1.23;0.70;;;12.10;99.90;;;;;;5012010;28;20050;-80
2023/12/11 07:28:52;;;;;;;1.17;0.60;;;12.10;99.90;;;;;;5006749;28;20486;-82
2023/12/11 07:31:19;;;;;;;2.10;0.50;;;12.00;99.90;;;;;;5010737;28;20117;-81
2023/12/11 07:33:46;;;;;;;2.55;0.70;;;12.10;99.90;;;;;;5014844;28;20044;-82
2023/12/11 07:36:13;;;;;;;1.90;0.77;;;12.10;99.90;;;;;;5013530;28;20110;-80
2023/12/11 07:38:39;;;;;;;1.08;0.52;;;12.00;99.90;;;;;;5008597;28;20101;-80
2023/12/11 07:41:06;;;;;;;5.35;0.75;;;12.10;99.90;;;;;;5008914;28;20049;-80
2023/12/11 07:43:33;;;;;;;1.08;0.63;;;12.10;99.90;;;;;;5008487;28;20522;-82
2023/12/11 07:46:01;;;;;;;1.10;0.63;;;12.10;99.90;;;;;;5008422;28;20054;-81
2023/12/11 07:48:28;;;;;;;1.95;0.90;;;12.10;99.90;;;;;;5023006;28;20080;-81
2023/12/11 07:50:56;;;;;;;1.05;0.80;;;12.10;99.90;;;;;;5007616;28;20053;-80
2023/12/11 07:53:22;;;;;;;1.65;0.63;;;12.10;99.90;;;;;;5012090;28;20400;-80
2023/12/11 07:55:49;;;;;;;1.75;0.75;;;12.10;99.90;;;;;;5008106;28;20046;-81
2023/12/11 07:58:16;;;;;;;2.20;0.98;;;12.10;99.90;;;;;;5009572;28;20466;-81
2023/12/11 08:00:43;;;;;;;0.90;0.50;;;12.10;99.90;;;;;;5008465;28;20046;-81
2023/12/11 08:03:10;;;;;;;1.42;0.60;;;12.10;99.90;;;;;;5008027;28;20482;-81
2023/12/11 08:05:37;;;;;;;2.50;0.90;;;12.10;99.90;;;;;;5008853;28;20056;-81
2023/12/11 08:08:04;;;;;;;1.73;0.77;;;12.10;99.90;;;;;;5013053;28;20046;-82
2023/12/11 08:10:32;;;;;;;2.10;0.90;;;12.10;99.90;;;;;;5007471;28;20460;-82
2023/12/11 08:12:58;;;;;;;2.33;1.00;;;12.10;99.90;;;;;;5010521;28;20042;-83
2023/12/11 08:15:25;;;;;;;4.10;0.68;;;12.00;99.90;;;;;;5006137;28;20453;-82
2023/12/11 08:17:52;;;;;;;2.30;0.80;;;12.10;99.90;;;;;;5006957;28;20410;-83
2023/12/11 08:20:20;;;;;;;4.13;0.80;;;12.00;99.90;;;;;;5010707;28;20477;-81
2023/12/11 08:22:47;;;;;;;2.95;0.90;;;12.10;99.90;;;;;;5010055;28;20048;-83
2023/12/11 08:25:14;;;;;;;1.85;0.80;;;12.00;99.90;;;;;;5012293;28;20105;-84
2023/12/11 08:27:41;;;;;;;4.47;1.08;;;12.00;99.90;;;;;;5004555;28;20077;-83
2023/12/11 08:30:10;;;;;;;6.55;0.90;;;12.00;99.90;;;;;;5024290;28;20053;-83
2023/12/11 08:32:39;;;;;;;1.42;0.73;;;12.00;99.90;;;;;;5008934;28;20092;-83
2023/12/11 08:35:07;;;;;;;3.92;1.35;;;12.00;99.90;;;;;;5008675;28;20125;-83
2023/12/11 08:37:34;;;;;;;3.92;0.70;;;12.00;99.90;;;;;;5013201;28;20367;-83
2023/12/11 08:40:03;;;;;;;0.98;0.85;;;12.00;99.90;;;;;;5011348;28;20100;-84
2023/12/11 08:42:32;;;;;;;4.00;0.77;;;11.90;99.90;;;;;;5007459;28;20080;-84
2023/12/11 08:45:05;;;;;;;3.45;1.20;;;11.90;99.90;;;;;;5004873;28;20155;-82
2023/12/11 08:47:32;;;;;;;2.35;0.65;;;11.90;99.90;;;;;;5007104;28;20049;-82
2023/12/11 08:50:05;;;;;;;1.73;0.80;;;11.90;99.90;;;;;;5005489;28;20129;-83
2023/12/11 08:52:31;;;;;;;1.00;0.50;;;11.90;99.90;;;;;;5009918;28;20077;-83
2023/12/11 08:54:58;;;;;;;2.00;0.80;;;11.90;99.90;;;;;;5011815;28;20049;-83
2023/12/11 08:57:25;;;;;;;2.13;0.70;;;11.90;99.90;;;;;;5018698;28;20054;-83
2023/12/11 08:59:52;;;;;;;3.60;0.68;;;11.90;99.90;;;;;;5006553;28;20269;-82
2023/12/11 09:02:18;;;;;;;2.55;0.70;;;11.90;99.90;;;;;;5013072;28;20064;-83
2023/12/11 09:04:45;;;;;;;4.85;0.82;;;11.80;99.90;;;;;;5008085;28;20403;-83
2023/12/11 09:07:12;;;;;;;1.85;0.60;;;11.80;99.90;;;;;;5012733;28;20100;-82
2023/12/11 09:09:39;;;;;;;3.53;0.98;;;11.80;99.90;;;;;;5011801;28;20081;-83
2023/12/11 09:12:06;;;;;;;3.55;0.80;;;11.80;99.90;;;;;;5012379;28;20050;-83
2023/12/11 09:14:41;;;;;;;3.45;1.20;;;11.80;99.90;;;;;;5009032;28;20050;-83
2023/12/11 09:17:07;;;;;;;1.23;0.60;;;11.80;99.90;;;;;;5015141;28;20073;-82
2023/12/11 09:19:34;;;;;;;0.68;0.50;;;11.80;99.90;;;;;;5010118;28;20468;-84
2023/12/11 09:22:16;;;;;;;1.63;0.90;;;11.80;99.90;;;;;;5007919;28;20521;-83
2023/12/11 09:24:43;;;;;;;1.40;0.50;;;11.80;99.90;;;;;;5014148;28;20198;-83
2023/12/11 09:27:10;;;;;;;2.70;0.60;;;11.80;99.90;;;;;;5013005;28;20050;-84
2023/12/11 09:29:37;;;;;;;2.25;0.68;;;11.80;99.90;;;;;;5024861;28;20064;-82
2023/12/11 09:32:04;;;;;;;2.47;0.77;;;11.80;99.90;;;;;;5027693;28;20100;-82
2023/12/11 09:34:32;;;;;;;1.30;0.70;;;11.70;99.90;;;;;;5019907;28;20105;-82
2023/12/11 09:36:59;;;;;;;1.00;0.63;;;11.80;99.90;;;;;;5010139;28;20126;-82
2023/12/11 09:39:26;;;;;;;0.75;0.50;;;11.70;99.90;;;;;;5011105;28;20066;-82
2023/12/11 09:41:53;;;;;;;1.48;0.60;;;11.70;99.90;;;;;;5008609;28;20064;-83
2023/12/11 09:44:21;;;;;;;2.05;0.60;;;11.70;99.90;;;;;;5011103;28;20128;-83
2023/12/11 09:46:54;;;;;;;0.77;0.50;;;11.70;99.90;;;;;;5008921;28;20046;-83
2023/12/11 09:49:21;;;;;;;2.03;0.60;;;11.70;99.90;;;;;;5010735;28;20062;-81
2023/12/11 09:51:52;;;;;;;2.78;1.45;;;11.70;99.90;;;;;;5007605;28;20049;-83
2023/12/11 09:54:19;;;;;;;1.05;0.50;;;11.70;99.90;;;;;;5010119;28;20058;-82
2023/12/11 09:56:47;;;;;;;1.80;0.80;;;11.70;99.90;;;;;;5011627;28;20050;-82
2023/12/11 09:59:15;;;;;;;1.33;0.63;;;11.70;99.90;;;;;;5009571;28;20612;-81
2023/12/11 10:01:41;;;;;;;2.00;0.68;;;11.70;99.90;;;;;;5011616;28;20050;-83
2023/12/11 10:04:08;;;;;;;1.25;0.55;;;11.70;99.90;;;;;;5010151;28;20049;-84
2023/12/11 10:06:35;;;;;;;1.25;0.63;;;11.70;99.90;;;;;;5010933;28;20105;-83
2023/12/11 10:09:04;;;;;;;0.68;0.50;;;11.70;99.90;;;;;;5009306;28;20057;-83
2023/12/11 10:11:31;;;;;;;4.22;0.93;;;11.70;99.90;;;;;;5011134;28;20058;-82
2023/12/11 10:14:14;;;;;;;2.05;0.80;;;11.80;99.90;;;;;;5006440;28;20046;-82
2023/12/11 10:16:42;;;;;;;0.60;0.40;;;11.80;99.90;;;;;;5014395;28;20045;-82
2023/12/11 10:19:09;;;;;;;3.85;1.42;;;11.80;99.90;;;;;;5009334;28;20042;-83
2023/12/11 10:21:40;;;;;;;0.85;0.47;;;11.80;99.90;;;;;;5012622;28;20123;-82
2023/12/11 10:24:13;;;;;;;1.60;0.70;;;11.80;99.90;;;;;;5009362;28;20054;-83
2023/12/11 10:26:52;;;;;;;0.82;0.50;;;11.80;99.90;;;;;;5009508;28;20050;-81
2023/12/11 10:29:21;;;;;;;0.60;0.40;;;11.80;99.90;;;;;;5009501;28;20050;-83
2023/12/11 10:31:50;;;;;;;3.83;0.75;;;11.90;99.90;;;;;;5009722;28;20112;-82
2023/12/11 10:34:16;;;;;;;2.67;0.60;;;11.90;99.90;;;;;;5008780;28;20045;-83
2023/12/11 10:36:49;;;;;;;0.70;0.60;;;11.90;99.90;;;;;;5008251;28;20046;-82
2023/12/11 10:39:18;;;;;;;1.13;0.35;;;11.90;99.90;;;;;;5008280;28;20042;-82
2023/12/11 10:41:45;;;;;;;1.15;0.50;;;11.90;99.90;;;;;;5008843;28;20046;-82
2023/12/11 10:44:26;;;;;;;2.50;0.70;;;11.90;99.90;;;;;;5007696;28;20185;-83
2023/12/11 10:47:12;;;;;;;4.78;0.60;;;11.90;99.90;;;;;;5010629;28;20096;-83
2023/12/11 10:49:40;;;;;;;0.75;0.57;;;11.90;99.90;;;;;;5012588;28;20112;-82
2023/12/11 10:52:07;;;;;;;1.95;0.80;;;11.90;99.90;;;;;;5009454;28;20109;-82
2023/12/11 10:54:38;;;;;;;0.65;0.40;;;11.90;99.90;;;;;;5012064;28;20101;-82
2023/12/11 10:57:14;;;;;;;0.40;0.35;;;11.90;99.90;;;;;;5014311;28;20050;-82
2023/12/11 10:59:44;;;;;;;1.05;0.60;;;11.80;99.90;;;;;;5022969;28;20557;-83
2023/12/11 11:02:15;;;;;;;0.95;0.70;;;11.80;99.90;;;;;;5014503;28;20399;-83
2023/12/11 11:04:44;;;;;;;1.75;0.60;;;11.90;99.90;;;;;;5008540;28;20353;-83
2023/12/11 11:07:23;;;;;;;0.85;0.50;;;11.90;99.90;;;;;;5008102;28;20050;-83
2023/12/11 11:10:09;;;;;;;1.40;0.60;;;11.90;99.90;;;;;;5005833;28;20046;-82
2023/12/11 11:13:06;;;;;;;1.23;0.70;;;11.90;99.90;;;;;;5009035;28;20057;-81
2023/12/11 11:15:33;;;;;;;5.22;0.80;;;11.80;99.90;;;;;;5006204;28;20051;-82
2023/12/11 11:18:09;;;;;;;1.25;0.60;;;11.80;99.90;;;;;;5005415;28;20046;-82
2023/12/11 11:20:40;;;;;;;1.52;0.77;;;11.90;99.90;;;;;;5010034;28;20050;-82
2023/12/11 11:23:13;;;;;;;0.65;0.60;;;11.90;99.90;;;;;;5013741;28;20045;-82
2023/12/11 11:25:41;;;;;;;0.73;0.50;;;11.90;99.90;;;;;;5009620;28;20103;-83
2023/12/11 11:28:35;;;;;;;0.63;0.43;;;12.00;99.90;;;;;;5009113;28;20060;-82
2023/12/11 11:31:02;;;;;;;1.20;0.70;;;11.90;99.90;;;;;;5008343;28;20057;-82
2023/12/11 11:33:47;;;;;;;1.13;0.52;;;12.00;99.90;;;;;;5006268;28;20058;-82
2023/12/11 11:36:16;;;;;;;1.15;0.77;;;12.00;99.90;;;;;;5008846;28;20060;-82
2023/12/11 11:38:54;;;;;;;3.22;1.00;;;12.10;99.90;;;;;;5011852;28;20418;-80
2023/12/11 11:41:27;;;;;;;2.03;1.00;;;12.10;99.90;;;;;;5004285;28;20069;-82
2023/12/11 11:44:08;;;;;;;1.67;0.80;;;12.10;99.90;;;;;;5003773;28;20136;-83
2023/12/11 11:46:48;;;;;;;;;;;12.10;99.90;;;;;;5008542;28;20132;-82
2023/12/11 11:49:28;;;;;;;;;;;12.10;99.90;;;;;;5008516;28;19992;-81
2023/12/11 11:51:56;;;;;;;1.23;0.95;;;12.10;99.90;;;;;;5008882;28;19921;-82
2023/12/11 11:54:24;;;;;;;0.75;0.57;;;12.10;99.90;;;;;;5007144;28;20042;-83
2023/12/11 11:56:52;;;;;;;2.20;0.70;;;12.10;99.90;;;;;;5012723;28;20557;-82
2023/12/11 11:59:19;;;;;;;2.25;0.98;;;12.10;99.90;;;;;;5011865;28;20078;-83
2023/12/11 12:01:54;;;;;;;2.47;0.77;;;12.10;99.90;;;;;;5013522;28;20407;-83
2023/12/11 12:04:29;;;;;;;4.00;0.40;;;12.10;99.90;;;;;;5005453;28;20059;-83
2023/12/11 12:07:00;;;;;;;1.98;0.70;;;12.10;99.90;;;;;;5008808;28;20077;-82
2023/12/11 12:09:28;;;;;;;0.85;0.43;;;12.10;99.90;;;;;;5007558;28;20077;-83
2023/12/11 12:11:54;;;;;;;1.08;0.40;;;12.10;99.90;;;;;;5008863;28;20058;-82
2023/12/11 12:14:22;;;;;;;1.17;0.40;;;12.10;99.90;;;;;;5007185;28;20050;-83
2023/12/11 12:16:49;;;;;;;0.38;0.30;;;12.10;99.90;;;;;;5012394;28;20049;-82
2023/12/11 12:19:17;;;;;;;0.70;0.50;;;12.10;99.90;;;;;;5012742;28;20099;-82
2023/12/11 12:21:52;;;;;;;1.45;0.70;;;12.10;99.90;;;;;;5007486;28;20047;-82
2023/12/11 12:24:21;;;;;;;2.10;0.30;;;12.10;99.90;;;;;;5012983;28;20057;-83
2023/12/11 12:26:53;;;;;;;1.95;0.30;;;12.20;99.90;;;;;;5007477;28;20046;-83
2023/12/11 12:29:20;;;;;;;1.80;0.63;;;12.20;99.90;;;;;;5008842;28;20050;-83
2023/12/11 12:31:47;;;;;;;2.42;0.90;;;12.20;99.90;;;;;;5006617;28;20038;-82
2023/12/11 12:34:16;;;;;;;1.52;0.60;;;12.20;99.90;;;;;;5012437;28;20058;-84
2023/12/11 12:36:44;;;;;;;1.15;0.43;;;12.20;99.90;;;;;;5009611;28;20057;-83
2023/12/11 12:39:12;;;;;;;0.70;0.40;;;12.20;99.90;;;;;;5014182;28;20046;-83
2023/12/11 12:41:39;;;;;;;1.85;0.80;;;12.20;99.90;;;;;;5016322;28;20046;-81
2023/12/11 12:44:06;;;;;;;4.28;0.70;;;12.20;99.90;;;;;;5009500;28;20053;-82
2023/12/11 12:46:43;;;;;;;0.65;0.40;;;12.10;99.90;;;;;;5016364;28;20533;-83
2023/12/11 12:49:14;;;;;;;1.38;0.98;;;12.10;99.90;;;;;;5015974;28;20050;-82
2023/12/11 12:51:52;;;;;;;2.03;1.25;;;12.10;99.90;;;;;;5010933;28;20046;-83
2023/12/11 12:54:21;;;;;;;2.13;1.48;;;12.10;99.90;;;;;;5010069;28;20472;-83